createdAt,value
2017-04-24T00:01:08.011Z,20.8
2017-04-24T00:02:18.251Z,20.64
2017-04-24T00:03:28.181Z,20.8
2017-04-24T00:04:38.456Z,20.8
2017-04-24T00:05:48.382Z,20.77
2017-04-24T00:06:58.001Z,20.82
2017-04-24T00:08:08.248Z,20.84
2017-04-24T00:09:18.174Z,20.67
2017-04-24T00:10:28.102Z,20.61
2017-04-24T00:11:38.029Z,20.8
2017-04-24T00:12:47.952Z,20.85
2017-04-24T00:13:57.880Z,20.77
2017-04-24T00:15:07.495Z,20.79
2017-04-24T00:16:17.741Z,20.77
2017-04-24T00:17:27.978Z,20.76
2017-04-24T00:18:38.227Z,20.73
2017-04-24T00:19:48.154Z,20.76
2017-04-24T00:20:58.398Z,20.73
2017-04-24T00:22:08.317Z,20.74
2017-04-24T00:23:18.563Z,20.76
2017-04-24T00:24:28.498Z,20.73
2017-04-24T00:25:38.425Z,20.82
2017-04-24T00:26:48.669Z,20.73
2017-04-24T00:27:58.902Z,20.73
2017-04-24T00:29:08.841Z,20.69
2017-04-24T00:30:18.774Z,20.74
2017-04-24T00:31:28.387Z,20.76
2017-04-24T00:32:38.626Z,20.77
2017-04-24T00:33:48.872Z,20.76
2017-04-24T00:34:58.798Z,20.79
2017-04-24T00:36:09.039Z,20.77
2017-04-24T00:37:18.962Z,20.79
2017-04-24T00:38:29.199Z,20.72
2017-04-24T00:39:38.818Z,20.72
2017-04-24T00:40:48.743Z,20.76
2017-04-24T00:41:58.668Z,20.76
2017-04-24T00:43:07.964Z,20.72
2017-04-24T00:44:17.889Z,20.72
2017-04-24T00:45:27.513Z,20.73
2017-04-24T00:46:37.127Z,20.62
2017-04-24T00:47:46.743Z,20.72
2017-04-24T00:48:56.580Z,20.74
2017-04-24T00:50:06.821Z,20.67
2017-04-24T00:51:16.753Z,20.74
2017-04-24T00:52:26.684Z,20.69
2017-04-24T00:53:36.923Z,20.62
2017-04-24T00:54:47.161Z,20.73
2017-04-24T00:55:57.087Z,20.67
2017-04-24T00:57:07.323Z,20.74
2017-04-24T00:58:17.251Z,20.7
2017-04-24T00:59:26.556Z,20.7
2017-04-24T01:00:36.794Z,20.72
2017-04-24T01:01:46.773Z,20.61
2017-04-24T01:02:57.013Z,20.73
2017-04-24T01:04:07.250Z,20.64
2017-04-24T01:05:17.187Z,20.62
2017-04-24T01:06:27.425Z,20.58
2017-04-24T01:07:37.675Z,20.57
2017-04-24T01:08:47.924Z,20.61
2017-04-24T01:09:58.169Z,20.59
2017-04-24T01:11:08.407Z,20.59
2017-04-24T01:12:18.335Z,20.59
2017-04-24T01:13:28.579Z,20.61
2017-04-24T01:14:38.826Z,20.57
2017-04-24T01:15:49.072Z,20.59
2017-04-24T01:16:59.316Z,20.72
2017-04-24T01:18:09.241Z,20.62
2017-04-24T01:19:19.489Z,20.62
2017-04-24T01:20:29.744Z,20.66
2017-04-24T01:21:39.357Z,20.61
2017-04-24T01:22:48.972Z,20.66
2017-04-24T01:23:59.218Z,20.64
2017-04-24T01:25:09.456Z,20.69
2017-04-24T01:26:19.705Z,20.61
2017-04-24T01:27:29.971Z,20.66
2017-04-24T01:28:39.590Z,20.69
2017-04-24T01:29:49.839Z,20.62
2017-04-24T01:30:59.779Z,20.62
2017-04-24T01:32:09.707Z,20.66
2017-04-24T01:33:19.635Z,20.59
2017-04-24T01:34:29.875Z,20.57
2017-04-24T01:35:40.110Z,20.62
2017-04-24T01:36:50.354Z,20.66
2017-04-24T01:38:00.292Z,20.62
2017-04-24T01:39:10.536Z,20.69
2017-04-24T01:40:20.466Z,20.66
2017-04-24T01:41:30.705Z,20.62
2017-04-24T01:42:40.943Z,20.66
2017-04-24T01:43:51.189Z,20.58
2017-04-24T01:45:01.431Z,20.61
2017-04-24T01:46:11.352Z,20.59
2017-04-24T01:47:21.282Z,20.59
2017-04-24T01:48:31.523Z,20.59
2017-04-24T01:49:41.447Z,20.66
2017-04-24T01:50:51.678Z,20.61
2017-04-24T01:52:01.606Z,20.66
2017-04-24T01:53:11.533Z,20.64
2017-04-24T01:54:21.778Z,20.58
2017-04-24T01:55:31.708Z,20.62
2017-04-24T01:56:41.942Z,20.58
2017-04-24T01:57:51.872Z,20.61
2017-04-24T01:59:02.115Z,20.5
2017-04-24T02:00:12.046Z,20.57
2017-04-24T02:01:21.967Z,20.59
2017-04-24T02:02:32.213Z,20.59
2017-04-24T02:03:42.139Z,20.62
2017-04-24T02:04:52.386Z,20.59
2017-04-24T02:06:02.630Z,20.57
2017-04-24T02:07:12.561Z,20.57
2017-04-24T02:08:22.799Z,20.66
2017-04-24T02:09:33.050Z,20.57
2017-04-24T02:10:42.982Z,20.59
2017-04-24T02:11:53.223Z,20.62
2017-04-24T02:13:03.463Z,20.59
2017-04-24T02:14:13.699Z,20.58
2017-04-24T02:15:23.006Z,20.51
2017-04-24T02:16:33.241Z,20.52
2017-04-24T02:17:43.492Z,20.55
2017-04-24T02:18:53.428Z,20.54
2017-04-24T02:20:03.352Z,20.57
2017-04-24T02:21:13.272Z,20.55
2017-04-24T02:22:23.518Z,20.47
2017-04-24T02:23:33.762Z,20.58
2017-04-24T02:24:44.005Z,20.57
2017-04-24T02:25:53.938Z,20.55
2017-04-24T02:27:03.879Z,20.59
2017-04-24T02:28:13.806Z,20.57
2017-04-24T02:29:24.059Z,20.51
2017-04-24T02:30:34.289Z,20.55
2017-04-24T02:31:43.586Z,20.54
2017-04-24T02:32:53.517Z,20.48
2017-04-24T02:34:03.446Z,20.54
2017-04-24T02:35:13.685Z,20.62
2017-04-24T02:36:23.620Z,20.72
2017-04-24T02:37:33.543Z,20.62
2017-04-24T02:38:43.789Z,20.77
2017-04-24T02:39:54.036Z,20.76
2017-04-24T02:41:03.994Z,20.87
2017-04-24T02:42:13.617Z,20.94
2017-04-24T02:43:23.861Z,20.88
2017-04-24T02:44:34.117Z,20.92
2017-04-24T02:45:44.360Z,20.94
2017-04-24T02:46:54.591Z,21.01
2017-04-24T02:48:04.221Z,20.94
2017-04-24T02:49:14.149Z,20.13
2017-04-24T02:50:23.775Z,19.63
2017-04-24T02:51:33.708Z,19.84
2017-04-24T02:52:43.940Z,20.08
2017-04-24T02:53:53.870Z,20.33
2017-04-24T02:55:04.106Z,20.5
2017-04-24T02:56:14.349Z,20.67
2017-04-24T02:57:23.969Z,20.64
2017-04-24T02:58:34.217Z,20.73
2017-04-24T02:59:43.827Z,20.76
2017-04-24T03:00:53.755Z,20.77
2017-04-24T03:02:03.370Z,20.79
2017-04-24T03:03:12.983Z,20.77
2017-04-24T03:04:22.911Z,20.85
2017-04-24T03:05:32.841Z,20.77
2017-04-24T03:06:43.080Z,20.82
2017-04-24T03:07:53.012Z,20.73
2017-04-24T03:09:03.259Z,20.76
2017-04-24T03:10:13.494Z,20.85
2017-04-24T03:11:23.421Z,20.7
2017-04-24T03:12:33.348Z,20.77
2017-04-24T03:13:42.967Z,20.8
2017-04-24T03:14:52.270Z,20.91
2017-04-24T03:16:02.523Z,20.73
2017-04-24T03:17:12.759Z,20.76
2017-04-24T03:18:22.696Z,20.72
2017-04-24T03:19:32.937Z,20.8
2017-04-24T03:20:43.181Z,20.74
2017-04-24T03:21:53.428Z,20.66
2017-04-24T03:23:03.675Z,20.82
2017-04-24T03:24:13.912Z,20.8
2017-04-24T03:25:23.846Z,20.8
2017-04-24T03:26:34.109Z,20.85
2017-04-24T03:27:44.039Z,20.87
2017-04-24T03:28:53.969Z,20.85
2017-04-24T03:30:04.212Z,20.84
2017-04-24T03:31:14.132Z,20.73
2017-04-24T03:32:24.376Z,20.85
2017-04-24T03:33:34.616Z,20.8
2017-04-24T03:34:44.852Z,20.76
2017-04-24T03:35:54.206Z,20.82
2017-04-24T03:37:04.144Z,20.77
2017-04-24T03:38:14.070Z,20.82
2017-04-24T03:39:24.314Z,20.7
2017-04-24T03:40:34.552Z,20.74
2017-04-24T03:41:45.024Z,20.72
2017-04-24T03:42:54.952Z,20.69
2017-04-24T03:44:04.885Z,20.82
2017-04-24T03:45:14.816Z,20.72
2017-04-24T03:46:25.058Z,20.79
2017-04-24T03:47:35.303Z,20.76
2017-04-24T03:48:45.554Z,20.74
2017-04-24T03:49:55.487Z,20.72
2017-04-24T03:51:05.732Z,20.76
2017-04-24T03:52:15.965Z,20.74
2017-04-24T03:53:26.221Z,20.77
2017-04-24T03:54:36.151Z,20.73
2017-04-24T03:55:46.073Z,20.7
2017-04-24T03:56:56.312Z,20.77
2017-04-24T03:58:05.917Z,20.79
2017-04-24T03:59:16.161Z,20.77
2017-04-24T04:00:26.402Z,20.77
2017-04-24T04:01:36.640Z,20.79
2017-04-24T04:02:46.572Z,20.74
2017-04-24T04:03:56.810Z,20.72
2017-04-24T04:05:07.053Z,20.77
2017-04-24T04:06:17.289Z,20.84
2017-04-24T04:07:26.903Z,20.69
2017-04-24T04:08:37.151Z,20.77
2017-04-24T04:09:47.388Z,20.79
2017-04-24T04:10:57.632Z,20.73
2017-04-24T04:12:07.243Z,20.73
2017-04-24T04:13:16.548Z,20.67
2017-04-24T04:14:26.794Z,20.79
2017-04-24T04:15:37.061Z,20.67
2017-04-24T04:16:46.986Z,20.61
2017-04-24T04:17:56.911Z,20.51
2017-04-24T04:19:07.161Z,20.51
2017-04-24T04:20:17.138Z,20.43
2017-04-24T04:21:27.383Z,20.52
2017-04-24T04:22:37.623Z,20.55
2017-04-24T04:23:47.547Z,20.51
2017-04-24T04:24:57.794Z,20.48
2017-04-24T04:26:07.723Z,20.36
2017-04-24T04:27:17.652Z,20.36
2017-04-24T04:28:27.274Z,20.41
2017-04-24T04:29:37.514Z,20.47
2017-04-24T04:30:47.445Z,20.48
2017-04-24T04:31:57.374Z,20.62
2017-04-24T04:33:07.619Z,20.51
2017-04-24T04:34:17.244Z,20.52
2017-04-24T04:35:26.546Z,20.64
2017-04-24T04:36:36.780Z,20.59
2017-04-24T04:37:46.716Z,20.57
2017-04-24T04:38:56.961Z,20.59
2017-04-24T04:40:07.200Z,20.73
2017-04-24T04:41:17.135Z,20.72
2017-04-24T04:42:27.368Z,20.8
2017-04-24T04:43:37.298Z,20.72
2017-04-24T04:44:47.545Z,20.74
2017-04-24T04:45:57.787Z,20.76
2017-04-24T04:47:08.025Z,20.89
2017-04-24T04:48:17.639Z,20.94
2017-04-24T04:49:27.566Z,20.91
2017-04-24T04:50:37.813Z,20.88
2017-04-24T04:51:48.064Z,20.88
2017-04-24T04:52:57.995Z,20.89
2017-04-24T04:54:08.265Z,20.92
2017-04-24T04:55:18.198Z,20.97
2017-04-24T04:56:28.440Z,20.95
2017-04-24T04:57:38.367Z,20.92
2017-04-24T04:58:48.614Z,20.89
2017-04-24T04:59:58.545Z,20.92
2017-04-24T05:01:08.472Z,20.95
2017-04-24T05:02:18.082Z,21.03
2017-04-24T05:03:28.334Z,21.06
2017-04-24T05:04:38.579Z,20.94
2017-04-24T05:05:48.187Z,20.95
2017-04-24T05:06:58.127Z,20.95
2017-04-24T05:08:08.377Z,20.91
2017-04-24T05:09:18.619Z,20.99
2017-04-24T05:10:28.231Z,20.94
2017-04-24T05:11:38.482Z,20.94
2017-04-24T05:12:48.722Z,20.94
2017-04-24T05:13:58.650Z,20.94
2017-04-24T05:15:08.587Z,20.98
2017-04-24T05:16:18.832Z,20.92
2017-04-24T05:17:29.067Z,20.95
2017-04-24T05:18:39.322Z,21.01
2017-04-24T05:19:49.257Z,21.01
2017-04-24T05:20:59.498Z,20.95
2017-04-24T05:22:09.740Z,21.07
2017-04-24T05:23:19.979Z,20.97
2017-04-24T05:24:29.906Z,20.99
2017-04-24T05:25:40.169Z,20.97
2017-04-24T05:26:50.089Z,21.03
2017-04-24T05:28:00.328Z,20.91
2017-04-24T05:29:10.576Z,20.97
2017-04-24T05:30:20.813Z,21.04
2017-04-24T05:31:30.741Z,20.97
2017-04-24T05:32:40.357Z,20.98
2017-04-24T05:33:50.293Z,20.99
2017-04-24T05:35:00.526Z,20.97
2017-04-24T05:36:10.139Z,20.95
2017-04-24T05:37:20.405Z,20.95
2017-04-24T05:38:30.646Z,20.95
2017-04-24T05:39:40.272Z,20.95
2017-04-24T05:40:50.521Z,20.97
2017-04-24T05:42:00.450Z,21.03
2017-04-24T05:43:10.370Z,21.01
2017-04-24T05:44:20.307Z,20.92
2017-04-24T05:45:30.256Z,21.06
2017-04-24T05:46:40.489Z,20.99
2017-04-24T05:47:50.727Z,20.95
2017-04-24T05:49:00.664Z,20.95
2017-04-24T05:50:10.595Z,21.01
2017-04-24T05:51:20.517Z,20.92
2017-04-24T05:52:30.447Z,21.04
2017-04-24T05:53:40.053Z,20.91
2017-04-24T05:54:49.667Z,21.01
2017-04-24T05:55:59.601Z,20.98
2017-04-24T05:57:09.527Z,20.92
2017-04-24T05:58:19.481Z,20.92
2017-04-24T05:59:29.741Z,20.99
2017-04-24T06:00:39.661Z,21.04
2017-04-24T06:01:49.896Z,20.95
2017-04-24T06:02:59.524Z,21.07
2017-04-24T06:04:09.454Z,21.1
2017-04-24T06:05:19.708Z,20.95
2017-04-24T06:06:29.938Z,21.01
2017-04-24T06:07:39.870Z,21.04
2017-04-24T06:08:50.117Z,21.07
2017-04-24T06:09:59.730Z,21.09
2017-04-24T06:11:09.983Z,21.1
2017-04-24T06:12:19.599Z,21.06
2017-04-24T06:13:29.842Z,21.06
2017-04-24T06:14:39.769Z,21.03
2017-04-24T06:15:49.694Z,21.07
2017-04-24T06:16:59.650Z,21.07
2017-04-24T06:18:09.579Z,21.12
2017-04-24T06:19:19.514Z,21.1
2017-04-24T06:20:29.759Z,21.07
2017-04-24T06:21:40.001Z,21.12
2017-04-24T06:22:49.925Z,21.1
2017-04-24T06:23:59.852Z,21.07
2017-04-24T06:25:09.467Z,21.03
2017-04-24T06:26:19.426Z,21.09
2017-04-24T06:27:29.346Z,21.12
2017-04-24T06:28:39.583Z,21.14
2017-04-24T06:29:49.197Z,21.09
2017-04-24T06:30:59.124Z,21.07
2017-04-24T06:32:09.372Z,21.1
2017-04-24T06:33:19.621Z,21.13
2017-04-24T06:34:29.235Z,21.09
2017-04-24T06:35:39.157Z,21.06
2017-04-24T06:36:49.424Z,21.12
2017-04-24T06:37:59.360Z,21.09
2017-04-24T06:39:09.286Z,21.07
2017-04-24T06:40:19.530Z,21.06
2017-04-24T06:41:29.768Z,21.09
2017-04-24T06:42:40.014Z,21.1
2017-04-24T06:43:49.945Z,21.06
2017-04-24T06:45:00.182Z,21.1
2017-04-24T06:46:09.476Z,21.06
2017-04-24T06:47:19.713Z,21.1
2017-04-24T06:48:29.641Z,21.07
2017-04-24T06:49:39.887Z,21.09
2017-04-24T06:50:49.808Z,21.06
2017-04-24T06:52:00.052Z,21.1
2017-04-24T06:53:10.293Z,21.14
2017-04-24T06:54:20.533Z,21.09
2017-04-24T06:55:30.462Z,21.1
2017-04-24T06:56:40.391Z,21.09
2017-04-24T06:57:50.632Z,21.1
2017-04-24T06:59:00.878Z,21.07
2017-04-24T07:00:11.139Z,21.09
2017-04-24T07:01:21.376Z,21.1
2017-04-24T07:02:31.628Z,21.1
2017-04-24T07:03:41.873Z,21.06
2017-04-24T07:04:52.118Z,21.06
2017-04-24T07:06:02.364Z,21.1
2017-04-24T07:07:12.604Z,21.09
2017-04-24T07:08:22.851Z,21.09
2017-04-24T07:09:33.096Z,21.16
2017-04-24T07:10:43.362Z,21.16
2017-04-24T07:11:53.593Z,21.13
2017-04-24T07:13:03.832Z,21.1
2017-04-24T07:14:13.770Z,21.14
2017-04-24T07:15:23.699Z,21.1
2017-04-24T07:16:33.631Z,21.16
2017-04-24T07:17:43.867Z,21.17
2017-04-24T07:18:54.119Z,21.17
2017-04-24T07:20:04.085Z,21.1
2017-04-24T07:21:14.326Z,21.22
2017-04-24T07:22:24.256Z,21.19
2017-04-24T07:23:34.503Z,21.19
2017-04-24T07:24:44.735Z,21.22
2017-04-24T07:25:54.347Z,21.25
2017-04-24T07:27:04.275Z,21.24
2017-04-24T07:28:14.513Z,21.14
2017-04-24T07:29:24.440Z,21.24
2017-04-24T07:30:34.686Z,21.21
2017-04-24T07:31:44.612Z,21.19
2017-04-24T07:32:54.857Z,21.31
2017-04-24T07:34:04.784Z,21.22
2017-04-24T07:35:14.711Z,21.25
2017-04-24T07:36:24.952Z,21.31
2017-04-24T07:37:35.195Z,21.22
2017-04-24T07:38:45.430Z,21.27
2017-04-24T07:39:55.045Z,21.28
2017-04-24T07:41:05.285Z,21.28
2017-04-24T07:42:15.215Z,21.29
2017-04-24T07:43:25.140Z,21.28
2017-04-24T07:44:35.383Z,21.29
2017-04-24T07:45:45.627Z,21.27
2017-04-24T07:46:55.551Z,21.27
2017-04-24T07:48:05.486Z,21.31
2017-04-24T07:49:15.098Z,21.21
2017-04-24T07:50:25.340Z,21.31
2017-04-24T07:51:35.583Z,21.21
2017-04-24T07:52:45.199Z,21.27
2017-04-24T07:53:55.444Z,21.17
2017-04-24T07:55:05.057Z,21.16
2017-04-24T07:56:14.698Z,21.24
2017-04-24T07:57:24.620Z,21.19
2017-04-24T07:58:34.546Z,21.16
2017-04-24T07:59:44.477Z,21.24
2017-04-24T08:00:54.089Z,21.14
2017-04-24T08:02:04.341Z,21.16
2017-04-24T08:03:14.579Z,21.22
2017-04-24T08:04:24.507Z,21.19
2017-04-24T08:05:34.744Z,21.24
2017-04-24T08:06:44.989Z,21.24
2017-04-24T08:07:55.229Z,21.22
2017-04-24T08:09:05.468Z,21.16
2017-04-24T08:10:15.729Z,21.21
2017-04-24T08:11:25.028Z,21.19
2017-04-24T08:12:35.269Z,21.22
2017-04-24T08:13:45.513Z,21.19
2017-04-24T08:14:55.446Z,21.21
2017-04-24T08:16:05.401Z,21.27
2017-04-24T08:17:15.006Z,21.24
2017-04-24T08:18:24.619Z,21.29
2017-04-24T08:19:34.234Z,20.72
2017-04-24T08:20:44.478Z,20.17
2017-04-24T08:21:54.404Z,19.63
2017-04-24T08:23:04.330Z,19.41
2017-04-24T08:24:14.259Z,19.55
2017-04-24T08:25:24.195Z,19.94
2017-04-24T08:26:34.158Z,20.2
2017-04-24T08:27:44.392Z,20.47
2017-04-24T08:28:54.630Z,20.57
2017-04-24T08:30:04.556Z,20.8
2017-04-24T08:31:14.509Z,20.69
2017-04-24T08:32:24.443Z,20.87
2017-04-24T08:33:34.677Z,20.94
2017-04-24T08:34:44.291Z,20.91
2017-04-24T08:35:54.219Z,20.95
2017-04-24T08:37:03.841Z,21.03
2017-04-24T08:38:13.461Z,21.04
2017-04-24T08:39:23.714Z,21.06
2017-04-24T08:40:33.954Z,21.03
2017-04-24T08:41:44.194Z,20.97
2017-04-24T08:42:54.430Z,20.36
2017-04-24T08:44:04.368Z,19.73
2017-04-24T08:45:14.608Z,19.21
2017-04-24T08:46:24.225Z,19.14
2017-04-24T08:47:34.146Z,18.91
2017-04-24T08:48:44.395Z,18.78
2017-04-24T08:49:54.685Z,18.95
2017-04-24T08:51:04.932Z,19.07
2017-04-24T08:52:14.546Z,18.9
2017-04-24T08:53:24.786Z,18.9
2017-04-24T08:54:35.022Z,18.98
2017-04-24T08:55:45.259Z,19.14
2017-04-24T08:56:55.503Z,19.18
2017-04-24T08:58:05.738Z,19.39
2017-04-24T08:59:15.349Z,19.43
2017-04-24T09:00:25.598Z,19.4
2017-04-24T09:01:35.527Z,19.07
2017-04-24T09:02:45.771Z,19.16
2017-04-24T09:03:56.055Z,19.19
2017-04-24T09:05:06.297Z,19.25
2017-04-24T09:06:16.544Z,19.39
2017-04-24T09:07:26.789Z,19.56
2017-04-24T09:08:36.406Z,19.54
2017-04-24T09:09:46.020Z,19.56
2017-04-24T09:10:55.948Z,19.39
2017-04-24T09:12:06.183Z,19.4
2017-04-24T09:13:16.119Z,19.23
2017-04-24T09:14:26.048Z,19.23
2017-04-24T09:15:36.278Z,18.95
2017-04-24T09:16:45.889Z,18.99
2017-04-24T09:17:55.828Z,19.1
2017-04-24T09:19:06.068Z,19.13
2017-04-24T09:20:15.990Z,19.16
2017-04-24T09:21:25.600Z,19.14
2017-04-24T09:22:35.216Z,19.1
2017-04-24T09:23:45.450Z,19
2017-04-24T09:24:55.373Z,18.98
2017-04-24T09:26:05.302Z,18.94
2017-04-24T09:27:14.912Z,18.98
2017-04-24T09:28:25.150Z,19.19
2017-04-24T09:29:34.454Z,19.47
2017-04-24T09:30:44.689Z,19.78
2017-04-24T09:31:54.608Z,20.17
2017-04-24T09:33:04.563Z,20.18
2017-04-24T09:34:14.824Z,19.69
2017-04-24T09:35:24.759Z,19.39
2017-04-24T09:36:35.000Z,19.16
2017-04-24T09:37:44.932Z,19.37
2017-04-24T09:38:54.864Z,19.65
2017-04-24T09:40:04.487Z,19.68
2017-04-24T09:41:14.433Z,19.92
2017-04-24T09:42:24.351Z,20.02
2017-04-24T09:43:34.587Z,20.18
2017-04-24T09:44:44.523Z,20.24
2017-04-24T09:45:54.759Z,20.31
2017-04-24T09:47:05.002Z,20.33
2017-04-24T09:48:15.249Z,20.36
2017-04-24T09:49:24.861Z,20.35
2017-04-24T09:50:35.108Z,20.41
2017-04-24T09:51:44.715Z,20.48
2017-04-24T09:52:54.951Z,20.43
2017-04-24T09:54:05.201Z,20.41
2017-04-24T09:55:15.443Z,20.47
2017-04-24T09:56:25.678Z,20.28
2017-04-24T09:57:35.620Z,20.29
2017-04-24T09:58:45.866Z,20.32
2017-04-24T09:59:56.102Z,20.36
2017-04-24T10:01:06.037Z,20.47
2017-04-24T10:02:16.278Z,20.52
2017-04-24T10:03:26.204Z,20.48
2017-04-24T10:04:36.129Z,20.52
2017-04-24T10:05:45.741Z,20.55
2017-04-24T10:06:55.351Z,20.55
2017-04-24T10:08:05.589Z,20.61
2017-04-24T10:09:15.522Z,20.5
2017-04-24T10:10:25.443Z,20.52
2017-04-24T10:11:35.686Z,20.51
2017-04-24T10:12:45.922Z,20.36
2017-04-24T10:13:55.880Z,20.5
2017-04-24T10:15:06.122Z,20.51
2017-04-24T10:16:15.739Z,20.57
2017-04-24T10:17:25.984Z,20.57
2017-04-24T10:18:35.596Z,20.54
2017-04-24T10:19:45.520Z,20.42
2017-04-24T10:20:55.452Z,20.5
2017-04-24T10:22:05.376Z,20.5
2017-04-24T10:23:15.309Z,20.5
2017-04-24T10:24:25.253Z,20.48
2017-04-24T10:25:35.488Z,20.5
2017-04-24T10:26:45.411Z,20.51
2017-04-24T10:27:55.652Z,20.5
2017-04-24T10:29:05.581Z,20.5
2017-04-24T10:30:15.193Z,20.61
2017-04-24T10:31:25.430Z,20.59
2017-04-24T10:32:35.664Z,20.62
2017-04-24T10:33:45.909Z,20.61
2017-04-24T10:34:56.151Z,20.74
2017-04-24T10:36:06.389Z,20.62
2017-04-24T10:37:16.314Z,20.62
2017-04-24T10:38:25.618Z,20.62
2017-04-24T10:39:35.868Z,20.61
2017-04-24T10:40:46.108Z,20.48
2017-04-24T10:41:56.032Z,20.57
2017-04-24T10:43:05.954Z,20.51
2017-04-24T10:44:15.878Z,20.36
2017-04-24T10:45:25.802Z,20.35
2017-04-24T10:46:36.038Z,20.39
2017-04-24T10:47:45.976Z,20.38
2017-04-24T10:48:56.223Z,20.5
2017-04-24T10:50:06.455Z,20.47
2017-04-24T10:51:16.384Z,20.66
2017-04-24T10:52:26.624Z,20.58
2017-04-24T10:53:36.547Z,20.66
2017-04-24T10:54:46.157Z,20.72
2017-04-24T10:55:56.389Z,20.72
2017-04-24T10:57:06.620Z,20.73
2017-04-24T10:58:16.545Z,20.73
2017-04-24T10:59:26.786Z,20.73
2017-04-24T11:00:37.019Z,20.7
2017-04-24T11:01:46.641Z,20.74
2017-04-24T11:02:56.877Z,20.66
2017-04-24T11:04:06.807Z,20.74
2017-04-24T11:05:16.733Z,20.77
2017-04-24T11:06:26.655Z,20.7
2017-04-24T11:07:36.890Z,20.72
2017-04-24T11:08:46.823Z,20.61
2017-04-24T11:09:56.761Z,20.58
2017-04-24T11:11:06.688Z,20.64
2017-04-24T11:12:16.629Z,20.57
2017-04-24T11:13:26.879Z,20.48
2017-04-24T11:14:36.825Z,20.48
2017-04-24T11:15:46.754Z,20.47
2017-04-24T11:16:57.008Z,20.58
2017-04-24T11:18:07.247Z,20.59
2017-04-24T11:19:16.868Z,20.62
2017-04-24T11:20:26.800Z,20.61
2017-04-24T11:21:37.034Z,20.62
2017-04-24T11:22:47.276Z,20.59
2017-04-24T11:23:57.214Z,20.61
2017-04-24T11:25:07.453Z,20.59
2017-04-24T11:26:17.378Z,20.73
2017-04-24T11:27:27.308Z,20.73
2017-04-24T11:28:37.552Z,20.72
2017-04-24T11:29:47.490Z,20.73
2017-04-24T11:30:57.100Z,20.72
2017-04-24T11:32:07.338Z,20.7
2017-04-24T11:33:17.272Z,20.66
2017-04-24T11:34:27.512Z,20.58
2017-04-24T11:35:37.764Z,20.62
2017-04-24T11:36:48.008Z,20.57
2017-04-24T11:37:58.248Z,20.58
2017-04-24T11:39:08.488Z,20.59
2017-04-24T11:40:18.417Z,20.61
2017-04-24T11:41:28.659Z,20.58
2017-04-24T11:42:38.591Z,20.59
2017-04-24T11:43:48.835Z,20.62
2017-04-24T11:44:59.079Z,20.62
2017-04-24T11:46:08.725Z,20.57
2017-04-24T11:47:18.654Z,20.59
2017-04-24T11:48:28.586Z,20.7
2017-04-24T11:49:38.507Z,20.59
2017-04-24T11:50:48.445Z,20.55
2017-04-24T11:51:58.685Z,20.55
2017-04-24T11:53:08.302Z,20.48
2017-04-24T11:54:18.246Z,20.58
2017-04-24T11:55:28.481Z,20.55
2017-04-24T11:56:38.717Z,20.51
2017-04-24T11:57:48.650Z,20.48
2017-04-24T11:58:58.890Z,20.48
2017-04-24T12:00:09.136Z,20.54
2017-04-24T12:01:19.067Z,20.55
2017-04-24T12:02:29.300Z,20.51
2017-04-24T12:03:39.567Z,20.54
2017-04-24T12:04:49.806Z,20.55
2017-04-24T12:05:59.728Z,20.54
2017-04-24T12:07:09.973Z,20.61
2017-04-24T12:08:20.257Z,20.58
2017-04-24T12:09:30.186Z,20.66
2017-04-24T12:10:40.430Z,20.64
2017-04-24T12:11:50.661Z,20.54
2017-04-24T12:12:59.959Z,20.59
2017-04-24T12:14:09.893Z,20.51
2017-04-24T12:15:19.811Z,20.58
2017-04-24T12:16:29.733Z,20.51
2017-04-24T12:17:39.977Z,20.5
2017-04-24T12:18:50.226Z,20.58
2017-04-24T12:20:00.156Z,20.61
2017-04-24T12:21:10.088Z,20.55
2017-04-24T12:22:20.340Z,20.59
2017-04-24T12:23:30.591Z,20.59
2017-04-24T12:24:40.831Z,20.62
2017-04-24T12:25:50.760Z,20.59
2017-04-24T12:27:00.686Z,20.59
2017-04-24T12:28:10.302Z,20.64
2017-04-24T12:29:20.235Z,20.59
2017-04-24T12:30:30.193Z,20.59
2017-04-24T12:31:40.431Z,20.61
2017-04-24T12:32:50.057Z,20.61
2017-04-24T12:34:00.293Z,20.58
2017-04-24T12:35:10.214Z,20.69
2017-04-24T12:36:19.823Z,20.57
2017-04-24T12:37:30.067Z,20.66
2017-04-24T12:38:40.327Z,20.58
2017-04-24T12:39:50.254Z,20.61
2017-04-24T12:41:00.412Z,20.61
2017-04-24T12:42:10.339Z,20.67
2017-04-24T12:43:20.266Z,20.62
2017-04-24T12:44:30.503Z,20.57
2017-04-24T12:45:40.740Z,20.61
2017-04-24T12:46:50.977Z,20.54
2017-04-24T12:48:01.226Z,20.54
2017-04-24T12:49:10.208Z,20.67
2017-04-24T12:50:19.823Z,20.58
2017-04-24T12:51:29.753Z,20.62
2017-04-24T12:52:39.392Z,20.59
2017-04-24T12:53:49.324Z,20.67
2017-04-24T12:54:59.566Z,20.62
2017-04-24T12:56:09.834Z,20.61
2017-04-24T12:57:19.443Z,20.58
2017-04-24T12:58:29.682Z,20.61
2017-04-24T12:59:39.303Z,20.61
2017-04-24T13:00:49.539Z,20.62
2017-04-24T13:01:59.779Z,20.59
2017-04-24T13:03:09.708Z,20.66
2017-04-24T13:04:19.630Z,20.66
2017-04-24T13:05:29.239Z,20.59
2017-04-24T13:06:38.540Z,20.59
2017-04-24T13:07:48.477Z,20.62
2017-04-24T13:08:58.095Z,20.66
2017-04-24T13:10:08.024Z,20.69
2017-04-24T13:11:17.636Z,20.72
2017-04-24T13:12:27.560Z,20.74
2017-04-24T13:13:37.801Z,20.74
2017-04-24T13:14:48.032Z,20.67
2017-04-24T13:15:57.963Z,20.74
2017-04-24T13:17:07.885Z,20.76
2017-04-24T13:18:17.809Z,20.76
2017-04-24T13:19:27.732Z,20.74
2017-04-24T13:20:37.345Z,20.74
2017-04-24T13:21:47.262Z,20.72
2017-04-24T13:22:57.220Z,20.74
2017-04-24T13:24:06.834Z,20.76
2017-04-24T13:25:16.446Z,20.69
2017-04-24T13:26:26.690Z,20.73
2017-04-24T13:27:36.301Z,20.79
2017-04-24T13:28:46.547Z,20.76
2017-04-24T13:29:56.166Z,20.76
2017-04-24T13:31:05.462Z,20.76
2017-04-24T13:32:15.700Z,20.76
2017-04-24T13:33:25.954Z,20.76
2017-04-24T13:34:35.570Z,20.8
2017-04-24T13:35:45.814Z,20.77
2017-04-24T13:36:56.063Z,20.76
2017-04-24T13:38:05.990Z,20.85
2017-04-24T13:39:16.231Z,20.8
2017-04-24T13:40:25.843Z,20.74
2017-04-24T13:41:35.456Z,20.77
2017-04-24T13:42:45.700Z,20.74
2017-04-24T13:43:55.941Z,20.84
2017-04-24T13:45:06.178Z,20.79
2017-04-24T13:46:16.420Z,20.82
2017-04-24T13:47:26.653Z,20.77
2017-04-24T13:48:36.271Z,20.79
2017-04-24T13:49:45.571Z,20.77
2017-04-24T13:50:54.554Z,20.8
2017-04-24T13:52:04.517Z,20.8
2017-04-24T13:53:14.449Z,20.84
2017-04-24T13:54:24.373Z,20.84
2017-04-24T13:55:34.303Z,20.77
2017-04-24T13:56:44.240Z,20.84
2017-04-24T13:57:54.480Z,20.77
2017-04-24T13:59:04.418Z,20.82
2017-04-24T14:00:13.718Z,20.87
2017-04-24T14:01:23.012Z,20.76
2017-04-24T14:02:32.416Z,20.84
2017-04-24T14:03:42.365Z,20.79
2017-04-24T14:04:51.981Z,20.74
2017-04-24T14:06:01.919Z,20.76
2017-04-24T14:07:12.156Z,20.85
2017-04-24T14:08:22.390Z,20.84
2017-04-24T14:09:32.019Z,20.76
2017-04-24T14:10:41.941Z,20.76
2017-04-24T14:11:50.934Z,20.89
2017-04-24T14:12:59.930Z,20.85
2017-04-24T14:14:09.231Z,20.88
2017-04-24T14:15:19.471Z,20.77
2017-04-24T14:16:29.711Z,20.79
2017-04-24T14:17:39.958Z,20.82
2017-04-24T14:18:50.201Z,20.85
2017-04-24T14:20:00.134Z,20.85
2017-04-24T14:21:09.743Z,20.85
2017-04-24T14:22:19.057Z,20.77
2017-04-24T14:23:28.047Z,20.82
2017-04-24T14:24:36.717Z,20.77
2017-04-24T14:25:46.334Z,20.77
2017-04-24T14:26:56.570Z,20.91
2017-04-24T14:28:06.810Z,20.88
2017-04-24T14:29:17.069Z,20.92
2017-04-24T14:30:27.310Z,20.84
2017-04-24T14:31:36.923Z,20.8
2017-04-24T14:32:46.863Z,20.88
2017-04-24T14:33:57.113Z,20.94
2017-04-24T14:35:07.039Z,20.92
2017-04-24T14:36:17.279Z,20.88
2017-04-24T14:37:27.205Z,20.87
2017-04-24T14:38:37.136Z,20.91
2017-04-24T14:39:47.064Z,20.88
2017-04-24T14:40:57.309Z,20.91
2017-04-24T14:42:07.559Z,20.92
2017-04-24T14:43:17.485Z,20.94
2017-04-24T14:44:27.416Z,20.88
2017-04-24T14:45:37.341Z,20.89
2017-04-24T14:46:47.261Z,20.89
2017-04-24T14:47:57.501Z,20.84
2017-04-24T14:49:07.742Z,20.89
2017-04-24T14:50:17.984Z,20.94
2017-04-24T14:51:27.277Z,20.92
2017-04-24T14:52:36.901Z,20.94
2017-04-24T14:53:46.827Z,20.89
2017-04-24T14:54:57.074Z,20.94
2017-04-24T14:56:07.009Z,20.89
2017-04-24T14:57:17.246Z,20.92
2017-04-24T14:58:27.494Z,20.94
2017-04-24T14:59:37.742Z,20.89
2017-04-24T15:00:47.668Z,20.99
2017-04-24T15:01:57.281Z,21.01
2017-04-24T15:03:07.213Z,20.94
2017-04-24T15:04:17.461Z,20.92